首页
METAR-TAF:

METAR-TAF

机场 :

University Park Airport

州学院, 宾夕法尼亚州, 美国

纬度: 40-51N, 经度: 077-51W, 海拔: 378米

当前天气观测

该预报发布于36分钟前的20:53 UTC
风速9节,风向西南
温度 25°C
湿度 65%
气压 1013 hPa
能見度: 16.1公里
散云层高于4000英尺

METAR: KUNV 182053Z 23009KT 10SM SCT040 25/18 A2991

时间: 17:29 (21:29 UTC)

预报

该预报发布于3小时和11分钟前的18:18 UTC
预报有效从18日的 18点(UTC)到 19日的 18点(UTC)
风速7节,风向西转西北
能見度: 10公里
多云层高于4000英尺
多云层高于15000英尺
附近有阵雨
从 19日的 0000点(UTC)
风速6节,风向西
能見度: 10公里
多云层高于4000英尺
多云层高于15000英尺
小阵雨
从 19日的 0300点(UTC)
风速2节,风向南转西南
能見度: 6.4公里
阴天层高于3000英尺
轻雾
从 19日的 0600点(UTC)
风速2节,风向南转西南
能見度: 2.4公里
阴天层高于1500英尺
轻雾
从 19日的 0900点(UTC)
风速2节,风向南转西南
能見度: 2.0公里
阴天层高于700英尺
从 19日的 1300点(UTC)
风速3节,风向南转西南
能見度: 1.6公里
阴天层高于1500英尺
小阵雨, 轻雾
从 19日的 1500点(UTC)
风速5节,风向南转西南
能見度: 1.6公里
阴天层高于1500英尺
小雨

TAF: KUNV 181818Z 1818/1918 30007KT P6SM VCSH BKN040 BKN150 FM190000 27006KT P6SM -SHRA BKN040 BKN150 FM190300 21002KT 4SM BR OVC030 FM190600 21002KT 1 1/2SM BR OVC015 FM190900 21002KT 1/4SM FG OVC007 FM191300 21003KT 4SM -SHRA BR OVC015 FM191500 21005KT 6SM -RA OVC015

超过4000个机场的气象观测和天气预报(METAR&TAF报告)。

可查询的气象台以黄色和红色小点在地图上表示。

将鼠标移到小点上方,可查看气象台名称。

然后点击查看天气观测和预报。

如需切换地图:点击带黑十字的绿色按钮放大地图;点击带横线的绿色按钮缩小地图;或者点击绿色箭头查看邻近地区的地图。


METAR-TAF: